Time;durP1;ratioP1;P1;durP2;ratioP2;P2;SDS_P1;SDS_P2;PMS_P1;PMS_P2;Temp;Humidity;BMP_temperature;BMP_pressure;BME280_temperature;BME280_humidity;BME280_pressure;Samples;Min_cycle;Max_cycle;Signal;HPM_P1;HPM_P2
2022/01/28 00:00:11;;;;;;;219.57;84.83;;;;;;;-2.91;97.06;95179.09;5086872;28;20204;-76
2022/01/28 00:05:26;;;;;;;207.33;79.90;;;;;;;-3.18;98.60;95176.25;5085199;28;20259;-75
2022/01/28 00:07:55;;;;;;;222.97;87.07;;;;;;;-3.18;99.04;95173.69;5089067;28;20263;-76
2022/01/28 00:10:24;;;;;;;218.73;81.33;;;;;;;-3.14;99.38;95175.06;5090330;28;20660;-74
2022/01/28 00:15:44;;;;;;;224.10;85.23;;;;;;;-3.11;98.84;95165.47;5089446;28;20203;-76
2022/01/28 00:37:59;;;;;;;190.70;71.17;;;;;;;-3.13;98.86;95156.34;5088852;28;20211;-76
2022/01/28 00:40:22;;;;;;;190.70;77.80;;;;;;;-3.11;97.93;95154.47;5088989;28;20197;-80
2022/01/28 00:42:50;;;;;;;193.70;72.97;;;;;;;-3.16;97.79;95146.44;5089769;28;20204;-79
2022/01/28 00:45:17;;;;;;;197.43;79.33;;;;;;;-3.25;98.72;95142.06;5089015;28;20285;-79
2022/01/28 00:47:46;;;;;;;194.67;78.17;;;;;;;-3.21;98.54;95143.47;5082604;28;20232;-78
2022/01/28 00:50:14;;;;;;;207.43;84.27;;;;;;;-3.26;98.72;95148.88;5089144;28;20205;-80
2022/01/28 00:52:43;;;;;;;222.43;88.93;;;;;;;-3.18;98.00;95151.66;5089195;28;20209;-79
2022/01/28 00:55:10;;;;;;;220.17;89.67;;;;;;;-3.30;98.27;95147.53;5088523;28;20288;-79
2022/01/28 00:57:37;;;;;;;221.60;92.50;;;;;;;-3.37;98.95;95140.50;5088972;28;20713;-79
2022/01/28 01:00:06;;;;;;;230.03;94.87;;;;;;;-3.29;98.42;95133.09;5087980;28;20197;-79
2022/01/28 01:02:33;;;;;;;223.23;93.13;;;;;;;-3.32;98.29;95138.44;5089058;28;20197;-78
2022/01/28 01:05:00;;;;;;;227.57;92.20;;;;;;;-3.30;98.10;95129.75;5078225;28;20266;-79
2022/01/28 01:07:27;;;;;;;211.80;89.20;;;;;;;-3.29;97.50;95125.47;5075964;28;20258;-80
2022/01/28 01:09:56;;;;;;;217.33;87.57;;;;;;;-3.29;97.49;95123.72;5089338;28;20211;-79
2022/01/28 01:12:25;;;;;;;200.83;85.37;;;;;;;-3.35;97.50;95124.25;5083005;28;20287;-80
2022/01/28 01:14:53;;;;;;;193.37;84.53;;;;;;;-3.35;97.74;95124.25;5088053;28;20204;-80
2022/01/28 01:17:28;;;;;;;184.30;80.17;;;;;;;-3.36;97.66;95117.53;5084884;28;20695;-81
2022/01/28 01:20:09;;;;;;;178.30;73.30;;;;;;;-3.34;97.32;95114.88;5089252;28;20204;-79
2022/01/28 01:22:39;;;;;;;173.13;68.67;;;;;;;-3.36;96.86;95112.47;5065436;28;20304;-81
2022/01/28 01:25:22;;;;;;;174.90;65.83;;;;;;;-3.35;96.36;95103.13;5083417;28;20320;-80
2022/01/28 01:27:54;;;;;;;161.47;64.40;;;;;;;-3.46;97.14;95092.06;5075293;28;20207;-80
2022/01/28 01:30:22;;;;;;;161.27;63.10;;;;;;;-3.45;97.22;95090.34;5075197;28;20213;-81
2022/01/28 01:32:50;;;;;;;168.27;62.70;;;;;;;-3.54;97.65;95091.06;5089463;28;20219;-80
2022/01/28 01:35:17;;;;;;;166.63;61.33;;;;;;;-3.49;97.55;95091.50;5082975;28;20265;-79
2022/01/28 01:37:44;;;;;;;176.07;66.33;;;;;;;-3.44;97.01;95081.78;5082096;28;20208;-81
2022/01/28 01:40:14;;;;;;;165.17;64.87;;;;;;;-3.50;97.59;95083.09;5082703;28;20740;-81
2022/01/28 01:42:49;;;;;;;157.40;62.60;;;;;;;-3.64;98.62;95077.50;5075914;28;20210;-79
2022/01/28 01:53:32;;;;;;;127.80;48.43;;;;;;;-3.61;98.63;95075.50;5087569;28;20246;-78
2022/01/28 01:56:01;;;;;;;122.43;50.70;;;;;;;-3.59;98.88;95067.78;5088070;28;20224;-78
2022/01/28 01:58:31;;;;;;;123.33;51.67;;;;;;;-3.53;98.56;95067.28;5081154;28;20707;-78
2022/01/28 02:01:00;;;;;;;128.17;53.67;;;;;;;-3.55;98.96;95064.06;5088072;28;20196;-78
2022/01/28 02:03:28;;;;;;;137.87;53.83;;;;;;;-3.54;98.51;95071.56;5082427;28;20232;-79
2022/01/28 02:05:58;;;;;;;139.77;55.13;;;;;;;-3.64;98.49;95070.69;5087872;28;20657;-79
2022/01/28 02:08:26;;;;;;;139.37;54.53;;;;;;;-3.64;99.22;95057.19;5086562;28;20205;-78
2022/01/28 02:10:57;;;;;;;132.93;56.70;;;;;;;-3.68;99.44;95066.78;5084270;28;20204;-78
2022/01/28 02:13:26;;;;;;;144.70;55.30;;;;;;;-3.72;100.00;95052.69;5088408;28;20246;-78
2022/01/28 02:15:55;;;;;;;132.07;53.57;;;;;;;-3.69;100.00;95049.09;5088384;28;20215;-78
2022/01/28 02:18:22;;;;;;;122.37;49.87;;;;;;;-3.71;99.99;95046.72;5078084;28;20200;-78
2022/01/28 02:20:53;;;;;;;117.10;45.93;;;;;;;-3.68;99.34;95051.53;5082593;28;20285;-78
2022/01/28 02:23:21;;;;;;;125.10;46.50;;;;;;;-3.70;99.48;95055.94;5085267;28;20296;-79
2022/01/28 02:25:50;;;;;;;121.33;44.23;;;;;;;-3.73;99.78;95045.22;5081475;28;20776;-75
2022/01/28 02:28:21;;;;;;;117.37;45.50;;;;;;;-3.78;99.26;95034.63;5087534;28;20660;-75
2022/01/28 02:30:49;;;;;;;115.60;44.97;;;;;;;-3.76;99.29;95035.31;5087350;28;20201;-74
2022/01/28 02:33:19;;;;;;;112.00;46.67;;;;;;;-3.78;98.50;95027.81;5086962;28;20907;-75
2022/01/28 02:35:48;;;;;;;125.47;48.93;;;;;;;-3.82;98.67;95038.34;5088468;28;21063;-75
2022/01/28 02:38:20;;;;;;;123.73;48.13;;;;;;;-3.90;98.46;95038.13;5087626;28;20215;-77
2022/01/28 02:40:50;;;;;;;277.77;121.80;;;;;;;-3.94;98.54;95037.56;5090470;28;20208;-75
2022/01/28 02:43:29;;;;;;;131.07;56.60;;;;;;;-3.82;98.44;95038.34;5093358;28;20285;-76
2022/01/28 02:46:03;;;;;;;118.93;48.17;;;;;;;-3.81;97.87;95034.88;5094691;28;20273;-74
2022/01/28 02:48:32;;;;;;;117.83;46.77;;;;;;;-3.80;97.99;95039.81;5084214;28;20208;-75
2022/01/28 02:51:05;;;;;;;121.60;47.80;;;;;;;-3.79;98.60;95041.44;5094045;28;20723;-75
2022/01/28 02:53:45;;;;;;;116.30;46.40;;;;;;;-3.76;99.01;95036.13;5093494;28;20299;-75
2022/01/28 02:56:17;;;;;;;97.83;39.03;;;;;;;-3.86;99.31;95035.22;5093388;28;20207;-75
2022/01/28 02:58:45;;;;;;;87.50;37.90;;;;;;;-3.91;99.73;95024.63;5093267;28;20207;-75
2022/01/28 03:01:14;;;;;;;89.33;36.70;;;;;;;-4.04;100.00;95027.31;5094181;28;20208;-75
2022/01/28 03:03:42;;;;;;;84.50;36.00;;;;;;;-4.22;100.00;95022.91;5091877;28;20208;-75
2022/01/28 03:06:10;;;;;;;87.83;36.80;;;;;;;-4.19;100.00;95022.66;5092411;28;20235;-75
2022/01/28 03:08:41;;;;;;;94.83;40.13;;;;;;;-4.21;100.00;95017.69;5093027;28;20291;-75
2022/01/28 03:14:14;;;;;;;94.40;39.00;;;;;;;-4.11;100.00;94992.41;5074155;28;20211;-74
2022/01/28 03:16:56;;;;;;;91.37;37.60;;;;;;;-4.05;100.00;94995.28;5086740;28;20741;-75
2022/01/28 03:19:27;;;;;;;106.43;40.60;;;;;;;-4.08;100.00;95005.69;5087410;28;20208;-78
2022/01/28 03:22:00;;;;;;;100.37;41.40;;;;;;;-3.98;100.00;94995.59;5080430;28;20192;-78
2022/01/28 03:24:29;;;;;;;101.80;41.27;;;;;;;-3.97;100.00;95006.53;5094811;28;20284;-79
2022/01/28 03:27:02;;;;;;;107.93;41.33;;;;;;;-4.01;100.00;94998.38;5095048;28;20297;-78
2022/01/28 03:29:29;;;;;;;96.30;40.87;;;;;;;-3.96;100.00;94998.81;5088260;28;20683;-77
2022/01/28 03:31:57;;;;;;;100.27;41.10;;;;;;;-3.89;99.16;94994.84;5094226;28;20660;-77
2022/01/28 03:34:24;;;;;;;96.03;39.20;;;;;;;-3.88;99.08;94975.38;5094478;28;20681;-77
2022/01/28 03:36:52;;;;;;;96.57;39.50;;;;;;;-3.88;98.53;94973.63;5088366;28;20200;-77
2022/01/28 03:39:19;;;;;;;104.67;40.37;;;;;;;-3.86;98.40;94978.56;5094998;28;20193;-77
2022/01/28 03:41:49;;;;;;;85.50;36.63;;;;;;;-3.90;99.42;94979.78;5081500;28;20604;-77
2022/01/28 03:44:16;;;;;;;88.33;36.87;;;;;;;-3.92;99.66;94987.50;5087644;28;20207;-74
2022/01/28 03:46:43;;;;;;;92.10;38.80;;;;;;;-3.94;99.15;94973.31;5088399;28;20221;-75
2022/01/28 03:49:10;;;;;;;96.73;40.20;;;;;;;-3.96;98.56;94970.09;5094054;28;20296;-76
2022/01/28 03:51:37;;;;;;;98.80;38.97;;;;;;;-4.09;98.88;94960.94;5093130;28;20204;-74
2022/01/28 03:54:05;;;;;;;101.57;42.07;;;;;;;-3.98;99.01;94959.28;5090026;28;20200;-75
2022/01/28 03:56:32;;;;;;;108.53;43.40;;;;;;;-3.96;98.06;94972.66;5080732;28;20564;-75
2022/01/28 03:59:00;;;;;;;106.40;43.93;;;;;;;-4.09;97.92;94967.72;5089812;28;20204;-75
2022/01/28 04:01:32;;;;;;;100.37;43.60;;;;;;;-4.12;98.24;94963.72;5090605;28;20200;-76
2022/01/28 04:12:20;;;;;;;102.73;42.43;;;;;;;-4.21;98.20;94954.28;5090050;28;20219;-76
2022/01/28 04:15:04;;;;;;;96.83;41.70;;;;;;;-4.24;98.66;94946.91;5090615;28;20197;-76
2022/01/28 04:17:32;;;;;;;98.40;43.33;;;;;;;-4.18;98.57;94954.03;5087454;28;20257;-76
2022/01/28 04:20:00;;;;;;;110.10;45.90;;;;;;;-4.29;99.05;94960.88;5090663;28;20232;-75
2022/01/28 04:22:27;;;;;;;117.40;46.57;;;;;;;-4.25;99.41;94967.34;5081975;28;20714;-75
2022/01/28 04:24:54;;;;;;;137.60;55.43;;;;;;;-4.27;99.52;94969.97;5090492;28;20207;-76
2022/01/28 04:27:21;;;;;;;137.50;55.83;;;;;;;-4.21;99.43;94971.22;5082850;28;20224;-75
2022/01/28 04:29:51;;;;;;;133.43;54.60;;;;;;;-4.15;98.92;94973.28;5083949;28;20213;-76
2022/01/28 04:32:19;;;;;;;176.60;72.80;;;;;;;-4.18;99.51;94968.44;5089965;28;20291;-76
2022/01/28 04:34:47;;;;;;;158.00;68.47;;;;;;;-4.32;100.00;94958.59;5089819;28;20268;-75
2022/01/28 04:37:23;;;;;;;150.97;61.30;;;;;;;-4.21;100.00;94971.22;5090002;28;20200;-75
2022/01/28 04:39:56;;;;;;;136.30;55.13;;;;;;;-4.30;100.00;94967.69;5090326;28;20647;-77
2022/01/28 04:43:03;;;;;;;118.30;49.20;;;;;;;-4.53;100.00;94935.72;5091274;28;20269;-78
2022/01/28 04:45:40;;;;;;;113.13;47.43;;;;;;;-4.51;100.00;94938.16;5090407;28;20203;-77
2022/01/28 04:48:17;;;;;;;127.63;47.83;;;;;;;-4.39;99.65;94965.09;5083975;28;20200;-77
2022/01/28 04:50:55;;;;;;;119.13;48.13;;;;;;;-4.37;99.51;94963.22;5083135;28;20200;-77
2022/01/28 04:53:39;;;;;;;116.43;49.80;;;;;;;-4.40;98.49;94971.88;5088888;28;20269;-77
2022/01/28 04:56:17;;;;;;;133.73;56.47;;;;;;;-4.40;98.40;94974.41;5090088;28;20262;-73
2022/01/28 04:58:57;;;;;;;146.17;61.97;;;;;;;-4.42;98.73;94970.41;5089327;28;20204;-72
2022/01/28 05:04:21;;;;;;;175.23;72.40;;;;;;;-4.42;98.83;94980.53;5081161;28;20256;-73
2022/01/28 05:15:40;;;;;;;132.37;57.17;;;;;;;-4.44;98.07;94967.19;5064189;28;20240;-73
2022/01/28 05:26:34;;;;;;;132.17;54.00;;;;;;;-4.51;99.01;94971.13;5089111;28;20288;-73
2022/01/28 05:29:01;;;;;;;121.70;51.03;;;;;;;-4.55;99.23;94973.06;5088349;28;20200;-74
2022/01/28 05:31:28;;;;;;;126.53;52.47;;;;;;;-4.47;98.43;94977.56;5087052;28;20208;-74
2022/01/28 05:33:57;;;;;;;122.93;52.83;;;;;;;-4.48;97.61;94979.28;5087264;28;20360;-73
2022/01/28 05:36:24;;;;;;;128.67;54.53;;;;;;;-4.60;98.62;94992.91;5087804;28;20200;-73
2022/01/28 05:38:52;;;;;;;118.97;51.03;;;;;;;-4.54;99.66;94979.75;5088128;28;20208;-73
2022/01/28 05:41:19;;;;;;;119.37;50.33;;;;;;;-4.54;99.35;94991.63;5088282;28;20288;-74
2022/01/28 05:43:47;;;;;;;126.73;51.43;;;;;;;-4.44;98.35;94982.41;5087573;28;20244;-73
2022/01/28 05:46:14;;;;;;;127.63;51.17;;;;;;;-4.45;98.13;94984.13;5087178;28;20221;-73
2022/01/28 05:48:41;;;;;;;135.73;52.53;;;;;;;-4.48;98.64;94981.81;5085248;28;20605;-73
2022/01/28 05:51:11;;;;;;;116.80;49.53;;;;;;;-4.41;99.03;94977.88;5088631;28;20207;-75
2022/01/28 05:53:38;;;;;;;136.23;52.50;;;;;;;-4.34;97.95;94975.66;5088040;28;20236;-73
2022/01/28 05:56:05;;;;;;;130.03;53.30;;;;;;;-4.36;97.57;94985.13;5081468;28;20288;-73
2022/01/28 05:58:32;;;;;;;90.07;40.47;;;;;;;-4.45;97.58;94979.06;5088833;28;20291;-73
2022/01/28 06:00:59;;;;;;;102.47;44.97;;;;;;;-4.45;98.84;94985.84;5087933;28;20209;-74
2022/01/28 06:03:26;;;;;;;102.17;44.30;;;;;;;-4.61;99.13;94987.03;5087295;28;20202;-75
2022/01/28 06:05:53;;;;;;;91.60;40.83;;;;;;;-4.52;99.08;94989.78;5085941;28;20652;-76
2022/01/28 06:08:22;;;;;;;109.27;43.93;;;;;;;-4.43;99.34;94984.00;5084249;28;20209;-73
2022/01/28 06:10:50;;;;;;;111.13;46.23;;;;;;;-4.44;99.12;94995.06;5088368;28;20285;-72
2022/01/28 06:13:18;;;;;;;111.60;47.53;;;;;;;-4.42;99.81;95005.91;5087453;28;20205;-75
2022/01/28 06:15:45;;;;;;;116.87;50.07;;;;;;;-4.34;98.80;95004.38;5087203;28;21094;-71
2022/01/28 06:18:13;;;;;;;109.13;47.53;;;;;;;-4.33;99.27;94998.34;5086296;28;20280;-71
2022/01/28 06:20:40;;;;;;;121.27;51.93;;;;;;;-4.27;99.19;95007.25;5088032;28;20201;-73
2022/01/28 06:23:07;;;;;;;118.30;53.20;;;;;;;-4.23;98.75;95016.22;5084035;28;20238;-72
2022/01/28 06:25:36;;;;;;;122.53;52.70;;;;;;;-4.18;99.11;95016.66;5087375;28;20681;-72
2022/01/28 06:28:03;;;;;;;124.30;54.03;;;;;;;-4.14;98.71;95025.63;5087943;28;20243;-72
2022/01/28 06:30:30;;;;;;;129.50;54.00;;;;;;;-4.13;98.76;95025.50;5087759;28;20296;-73
2022/01/28 06:32:57;;;;;;;131.60;57.57;;;;;;;-4.12;99.02;95026.31;5088339;28;20208;-71
2022/01/28 06:35:24;;;;;;;141.30;55.97;;;;;;;-4.11;99.79;95021.13;5086993;28;20296;-71
2022/01/28 06:37:53;;;;;;;164.23;66.80;;;;;;;-4.09;99.64;95015.94;5087343;28;20324;-73
2022/01/28 06:40:20;;;;;;;157.37;64.40;;;;;;;-4.03;99.81;95020.53;5085351;28;20209;-73
2022/01/28 06:42:51;;;;;;;167.07;69.50;;;;;;;-4.02;100.00;95022.97;5083530;28;20212;-71
2022/01/28 06:45:18;;;;;;;163.43;71.30;;;;;;;-4.07;100.00;95009.03;5086844;28;20374;-72
2022/01/28 06:47:45;;;;;;;104.17;45.80;;;;;;;-4.04;100.00;95007.03;5082566;28;20691;-72
2022/01/28 06:50:12;;;;;;;107.93;42.70;;;;;;;-3.98;100.00;95007.50;5087567;28;20703;-73
2022/01/28 06:52:42;;;;;;;112.13;45.40;;;;;;;-3.95;100.00;95019.94;5087453;28;20197;-71
2022/01/28 06:55:12;;;;;;;103.10;40.13;;;;;;;-3.96;100.00;95031.81;5086802;28;20261;-72
2022/01/28 06:57:40;;;;;;;87.73;36.50;;;;;;;-3.91;100.00;95018.75;5083133;28;20228;-72
2022/01/28 07:00:10;;;;;;;103.77;40.97;;;;;;;-3.82;100.00;95030.72;5083783;28;20219;-71
2022/01/28 07:02:38;;;;;;;98.33;40.40;;;;;;;-3.65;100.00;95030.97;5086315;28;20640;-72
2022/01/28 07:05:06;;;;;;;84.43;38.53;;;;;;;-3.48;100.00;95032.97;5088659;28;20243;-72
2022/01/28 07:07:34;;;;;;;81.10;38.13;;;;;;;-3.42;100.00;95036.75;5087335;28;20311;-71
2022/01/28 07:10:01;;;;;;;89.03;40.13;;;;;;;-3.40;100.00;95026.44;5087024;28;20204;-72
2022/01/28 07:12:28;;;;;;;109.20;44.30;;;;;;;-3.22;100.00;95046.09;5087260;28;20288;-72
2022/01/28 07:14:56;;;;;;;100.93;44.73;;;;;;;-3.14;100.00;95036.09;5084831;28;20205;-72
2022/01/28 07:17:24;;;;;;;94.97;42.30;;;;;;;-2.92;100.00;95051.22;5085737;28;20232;-72
2022/01/28 07:19:52;;;;;;;93.80;40.63;;;;;;;-2.91;98.88;95044.38;5086964;28;20554;-71
2022/01/28 07:22:19;;;;;;;94.30;39.43;;;;;;;-2.78;99.16;95049.25;5083242;28;20748;-72
2022/01/28 07:24:47;;;;;;;80.50;35.23;;;;;;;-2.72;99.71;95048.75;5087270;28;20748;-72
2022/01/28 07:27:19;;;;;;;67.23;32.20;;;;;;;-2.64;99.16;95054.00;5087275;28;20277;-72
2022/01/28 07:29:48;;;;;;;77.33;34.37;;;;;;;-2.68;98.85;95034.84;5090580;28;20627;-73
2022/01/28 07:32:15;;;;;;;82.53;35.67;;;;;;;-2.51;98.88;95052.06;5090401;28;20623;-71
2022/01/28 07:34:44;;;;;;;96.97;35.57;;;;;;;-2.44;97.79;95056.50;5090657;28;20319;-72
2022/01/28 07:37:11;;;;;;;69.73;31.77;;;;;;;-2.47;97.21;95051.66;5090490;28;20203;-71
2022/01/28 07:39:38;;;;;;;76.73;32.87;;;;;;;-2.42;96.84;95053.81;5090808;28;20300;-71
2022/01/28 07:42:06;;;;;;;80.83;34.73;;;;;;;-2.27;96.81;95067.78;5090135;28;20201;-71
2022/01/28 07:44:33;;;;;;;78.20;32.73;;;;;;;-2.15;96.73;95065.94;5090673;28;20204;-72
2022/01/28 07:47:00;;;;;;;82.37;33.77;;;;;;;-2.03;95.24;95075.06;5083535;28;20240;-74
2022/01/28 07:49:27;;;;;;;73.23;31.27;;;;;;;-1.95;94.36;95072.66;5091003;28;20283;-81
2022/01/28 07:51:57;;;;;;;73.70;31.57;;;;;;;-1.92;93.70;95077.50;5086996;28;20219;-76
2022/01/28 07:54:24;;;;;;;70.17;26.60;;;;;;;-1.87;93.43;95070.25;5088768;28;20603;-75
2022/01/28 07:56:54;;;;;;;73.10;25.53;;;;;;;-1.79;93.21;95089.03;5090376;28;20593;-76
2022/01/28 07:59:25;;;;;;;76.77;31.20;;;;;;;-1.69;93.20;95086.50;5086243;28;20213;-75
2022/01/28 08:01:53;;;;;;;76.33;32.73;;;;;;;-1.52;93.47;95085.84;5083615;28;20200;-76
2022/01/28 08:04:20;;;;;;;84.07;34.27;;;;;;;-1.31;91.33;95085.72;5085449;28;20204;-75
2022/01/28 08:06:49;;;;;;;68.73;31.93;;;;;;;-1.18;90.50;95076.03;5085137;28;20211;-76
2022/01/28 08:09:17;;;;;;;80.03;33.87;;;;;;;-0.95;89.78;95079.09;5089932;28;20296;-75
2022/01/28 08:11:45;;;;;;;85.63;33.63;;;;;;;-0.79;88.88;95081.88;5089792;28;20205;-76
2022/01/28 08:14:13;;;;;;;72.93;31.87;;;;;;;-0.63;87.92;95084.63;5090100;28;20204;-76
2022/01/28 08:16:42;;;;;;;69.93;27.80;;;;;;;-0.55;86.24;95068.63;5078835;28;20237;-76
2022/01/28 08:19:41;;;;;;;65.97;27.23;;;;;;;-0.53;85.83;95064.19;5073685;28;20281;-82
2022/01/28 08:26:06;;;;;;;64.70;28.67;;;;;;;-0.80;85.44;95013.94;5072505;28;20201;-83
2022/01/28 08:28:47;;;;;;;63.47;27.47;;;;;;;-0.51;85.07;95047.78;5096507;28;20248;-90
2022/01/28 08:31:32;;;;;;;58.80;25.47;;;;;;;-0.84;85.15;94964.16;5068231;28;20206;-78
2022/01/28 08:34:03;;;;;;;57.17;26.63;;;;;;;-0.17;84.87;95050.56;5080548;28;20232;-82
2022/01/28 08:36:34;;;;;;;64.57;27.83;;;;;;;-0.22;83.68;95029.78;5072313;28;20216;-81
2022/01/28 08:39:31;;;;;;;67.53;28.40;;;;;;;-0.40;83.60;94973.56;5082842;28;20236;-82
2022/01/28 08:42:16;;;;;;;63.63;27.23;;;;;;;0.10;83.51;95025.00;5067866;28;20664;-82
2022/01/28 08:45:29;;;;;;;65.53;29.77;;;;;;;-0.06;83.46;94971.22;5064741;28;20193;-81
2022/01/28 08:48:08;;;;;;;61.33;27.97;;;;;;;0.18;82.21;94985.94;5066041;28;20244;-80
2022/01/28 08:50:35;;;;;;;67.47;28.17;;;;;;;0.81;81.09;95064.13;5069500;28;20296;-81
2022/01/28 08:53:02;;;;;;;68.37;28.50;;;;;;;0.84;81.01;95065.56;5084067;28;20327;-81
2022/01/28 08:55:30;;;;;;;74.50;33.00;;;;;;;0.77;80.68;95073.06;5082539;28;20208;-80
2022/01/28 08:57:59;;;;;;;86.93;38.53;;;;;;;0.76;81.48;95075.75;5082605;28;20209;-80
2022/01/28 09:00:26;;;;;;;105.40;43.83;;;;;;;0.83;81.45;95080.13;5084940;28;20211;-80
2022/01/28 09:02:55;;;;;;;100.77;43.67;;;;;;;0.96;81.24;95080.53;5091074;28;20210;-81
2022/01/28 09:05:22;;;;;;;102.47;47.57;;;;;;;1.06;81.45;95080.47;5078159;28;20196;-80
2022/01/28 09:07:51;;;;;;;110.03;47.90;;;;;;;1.22;80.75;95079.75;5065634;28;20226;-80
2022/01/28 09:10:19;;;;;;;109.17;48.37;;;;;;;1.49;80.12;95087.28;5072056;28;20277;-82
2022/01/28 09:12:49;;;;;;;93.90;45.63;;;;;;;1.76;79.26;95081.97;5084821;28;20246;-81
2022/01/28 09:15:18;;;;;;;103.13;45.83;;;;;;;1.93;76.51;95070.84;5078871;28;20228;-81
2022/01/28 09:17:45;;;;;;;96.43;45.27;;;;;;;2.05;76.12;95076.50;5084744;28;20210;-81
2022/01/28 09:20:12;;;;;;;99.77;45.47;;;;;;;2.16;75.65;95086.47;5083653;28;20206;-83
2022/01/28 09:22:39;;;;;;;97.13;45.47;;;;;;;2.25;75.54;95072.72;5069779;28;20239;-82
2022/01/28 09:25:08;;;;;;;99.37;46.17;;;;;;;2.30;76.07;95083.28;5084885;28;20293;-81
2022/01/28 09:27:36;;;;;;;97.17;45.30;;;;;;;2.33;76.36;95084.72;5058593;28;20257;-83
2022/01/28 09:30:06;;;;;;;96.50;44.53;;;;;;;2.35;76.01;95072.53;5072005;28;20204;-81
2022/01/28 09:32:35;;;;;;;110.93;47.60;;;;;;;2.44;75.01;95092.94;5084930;28;20228;-83
2022/01/28 09:35:03;;;;;;;96.97;46.60;;;;;;;2.47;74.38;95087.50;5071355;28;20255;-82
2022/01/28 09:37:30;;;;;;;102.47;48.10;;;;;;;2.54;75.24;95087.66;5065345;28;20288;-81
2022/01/28 09:39:57;;;;;;;103.37;48.53;;;;;;;2.44;74.82;95092.94;5084323;28;20231;-81
2022/01/28 09:42:29;;;;;;;111.57;48.77;;;;;;;2.38;75.24;95091.00;5077214;28;20206;-81
2022/01/28 09:44:59;;;;;;;90.13;42.87;;;;;;;2.35;75.32;95085.38;5077747;28;20296;-81
2022/01/28 09:47:27;;;;;;;79.30;33.90;;;;;;;2.37;74.90;95081.69;5067632;28;20217;-81
2022/01/28 09:49:57;;;;;;;67.77;30.50;;;;;;;2.41;73.78;95082.19;5088952;28;20587;-80
2022/01/28 09:52:25;;;;;;;68.57;29.97;;;;;;;2.38;73.70;95073.03;5071780;28;20609;-80
2022/01/28 09:54:52;;;;;;;69.83;32.73;;;;;;;2.43;74.08;95075.94;5084682;28;20212;-82
2022/01/28 09:57:21;;;;;;;78.53;33.87;;;;;;;2.48;72.80;95078.03;5082851;28;20200;-81
2022/01/28 09:59:49;;;;;;;72.87;34.07;;;;;;;2.48;73.76;95083.94;5065090;28;20205;-81
2022/01/28 10:02:16;;;;;;;76.13;34.07;;;;;;;2.50;74.42;95082.03;5082426;28;20651;-84
2022/01/28 10:04:43;;;;;;;85.53;37.07;;;;;;;2.53;74.63;95088.63;5075640;28;20205;-80
2022/01/28 10:07:14;;;;;;;81.70;34.83;;;;;;;2.58;74.46;95076.13;5072508;28;20219;-90
2022/01/28 10:09:56;;;;;;;77.57;34.67;;;;;;;2.58;73.92;95076.13;5074104;28;20286;-89
2022/01/28 10:12:31;;;;;;;77.47;36.30;;;;;;;2.67;74.36;95072.59;5072820;28;20196;-91
2022/01/28 10:15:02;;;;;;;83.80;39.27;;;;;;;2.73;74.12;95087.34;5073655;28;20197;-83
2022/01/28 10:17:52;;;;;;;85.60;38.73;;;;;;;2.68;74.64;95084.47;5072325;28;20279;-81
2022/01/28 10:20:19;;;;;;;85.23;38.37;;;;;;;2.71;75.05;95087.50;5069573;28;20235;-72
2022/01/28 10:22:57;;;;;;;80.40;38.47;;;;;;;2.64;75.88;95089.13;5074819;28;20284;-72
2022/01/28 10:25:26;;;;;;;83.40;37.83;;;;;;;2.66;76.63;95091.50;5072277;28;20219;-81
2022/01/28 10:28:00;;;;;;;78.60;39.10;;;;;;;2.66;76.06;95102.56;5072648;28;20274;-83
2022/01/28 10:30:28;;;;;;;87.70;38.50;;;;;;;2.64;76.29;95098.56;5073373;28;20708;-76
2022/01/28 10:33:11;;;;;;;83.40;40.90;;;;;;;2.51;76.75;95099.00;5076898;28;20204;-76
2022/01/28 10:35:39;;;;;;;89.20;40.70;;;;;;;2.54;76.45;95097.94;5089357;28;20232;-78
2022/01/28 10:38:08;;;;;;;91.07;41.83;;;;;;;2.54;76.23;95087.66;5089095;28;20667;-78
2022/01/28 10:40:35;;;;;;;93.63;43.80;;;;;;;2.65;76.83;95092.50;5080572;28;20269;-76
2022/01/28 10:43:02;;;;;;;93.03;42.47;;;;;;;2.54;77.13;95090.22;5087466;28;20219;-77
2022/01/28 10:45:31;;;;;;;90.47;41.83;;;;;;;2.57;77.51;95087.34;5087954;28;20193;-76
2022/01/28 10:48:01;;;;;;;98.60;44.30;;;;;;;2.62;77.59;95092.81;5083975;28;20638;-76
2022/01/28 10:50:31;;;;;;;85.70;42.60;;;;;;;2.66;78.07;95094.88;5081853;28;20193;-77
2022/01/28 10:53:04;;;;;;;91.60;43.03;;;;;;;2.66;78.41;95089.75;5085990;28;20211;-76
2022/01/28 10:55:35;;;;;;;87.00;41.27;;;;;;;2.81;78.81;95098.44;5086569;28;20279;-75
2022/01/28 10:58:04;;;;;;;94.87;42.27;;;;;;;2.88;78.20;95092.66;5081142;28;20196;-77
2022/01/28 11:00:32;;;;;;;94.50;41.73;;;;;;;2.92;76.68;95097.31;5087485;28;20208;-77
2022/01/28 11:03:01;;;;;;;89.40;42.73;;;;;;;2.97;76.12;95086.56;5091034;28;20201;-76
2022/01/28 11:05:30;;;;;;;95.67;44.67;;;;;;;2.99;75.11;95080.31;5091531;28;20303;-76
2022/01/28 11:07:58;;;;;;;100.47;44.23;;;;;;;3.02;74.99;95084.31;5093333;28;20225;-76
2022/01/28 11:10:25;;;;;;;101.13;43.27;;;;;;;3.02;74.85;95081.75;5085943;28;20201;-75
2022/01/28 11:12:56;;;;;;;87.47;42.03;;;;;;;3.03;75.34;95083.38;5092604;28;20205;-75
2022/01/28 11:15:23;;;;;;;82.03;39.43;;;;;;;2.98;75.30;95071.00;5091684;28;20200;-76
2022/01/28 11:17:52;;;;;;;91.90;38.93;;;;;;;3.08;75.08;95079.34;5080884;28;20201;-75
2022/01/28 11:20:22;;;;;;;85.23;40.47;;;;;;;3.16;74.85;95076.78;5090826;28;20196;-75
2022/01/28 11:23:00;;;;;;;85.90;41.03;;;;;;;3.21;75.16;95076.28;5090381;28;20731;-76
2022/01/28 11:25:45;;;;;;;97.97;42.67;;;;;;;3.27;75.57;95076.44;5091828;28;20201;-76
2022/01/28 11:28:15;;;;;;;107.00;48.27;;;;;;;3.44;75.10;95080.56;5091234;28;20246;-76
2022/01/28 11:30:51;;;;;;;131.90;54.00;;;;;;;3.52;75.27;95084.09;5091707;28;20209;-76
2022/01/28 11:33:19;;;;;;;127.80;57.23;;;;;;;3.49;74.86;95074.97;5091899;28;20260;-76
2022/01/28 11:36:03;;;;;;;106.87;46.03;;;;;;;3.56;75.98;95067.38;5085769;28;20197;-75
2022/01/28 11:38:41;;;;;;;76.10;33.53;;;;;;;3.70;77.38;95067.50;5091261;28;20652;-75
2022/01/28 11:41:10;;;;;;;40.33;19.33;;;;;;;3.81;78.83;95062.00;5084724;28;20208;-77
2022/01/28 11:43:48;;;;;;;23.93;11.50;;;;;;;3.86;80.74;95056.38;5091934;28;20197;-76
2022/01/28 11:46:24;;;;;;;16.37;8.60;;;;;;;3.79;81.85;95055.41;5082693;28;20695;-77
2022/01/28 11:49:24;;;;;;;11.53;6.87;;;;;;;3.83;81.97;95047.22;5078640;28;20224;-75
2022/01/28 11:51:53;;;;;;;14.93;7.83;;;;;;;3.84;82.88;95061.66;5091525;28;20201;-77
2022/01/28 11:54:23;;;;;;;15.13;8.23;;;;;;;3.84;83.37;95048.81;5091366;28;20618;-77
2022/01/28 11:57:29;;;;;;;23.27;9.47;;;;;;;3.88;83.88;95050.09;5092344;28;20219;-79
2022/01/28 12:00:24;;;;;;;18.23;9.80;;;;;;;3.96;82.98;95050.03;5085886;28;20284;-76
2022/01/28 12:02:52;;;;;;;22.40;9.57;;;;;;;4.01;82.97;95044.41;5085131;28;20236;-76
2022/01/28 12:05:50;;;;;;;23.00;10.93;;;;;;;4.09;83.24;95033.28;5085426;28;20204;-76
2022/01/28 12:08:19;;;;;;;24.00;13.13;;;;;;;4.26;83.39;95039.94;5090957;28;20362;-77
2022/01/28 12:10:50;;;;;;;24.17;12.07;;;;;;;4.30;83.25;95033.50;5080825;28;20206;-77
2022/01/28 12:13:20;;;;;;;26.07;13.73;;;;;;;4.51;82.92;95039.63;5089316;28;20203;-76
2022/01/28 12:16:09;;;;;;;28.87;15.10;;;;;;;4.71;81.44;95034.81;5091739;28;20279;-77
2022/01/28 12:18:54;;;;;;;25.13;13.57;;;;;;;4.81;81.13;95027.66;5081443;28;20292;-76
2022/01/28 12:21:25;;;;;;;22.17;11.53;;;;;;;4.86;80.78;95034.84;5085090;28;20199;-76
2022/01/28 12:23:54;;;;;;;21.97;11.90;;;;;;;4.86;80.59;95025.38;5082123;28;20201;-76
2022/01/28 12:26:22;;;;;;;26.63;12.47;;;;;;;4.83;81.60;95025.69;5091848;28;20224;-75
2022/01/28 12:28:54;;;;;;;16.53;10.00;;;;;;;4.93;80.20;95023.69;5091070;28;20251;-76
2022/01/28 12:31:30;;;;;;;17.53;9.77;;;;;;;4.94;80.50;95020.13;5091315;28;20741;-76
2022/01/28 12:34:02;;;;;;;15.67;8.80;;;;;;;4.96;80.45;95027.69;5086324;28;20312;-76
2022/01/28 12:36:31;;;;;;;24.40;12.23;;;;;;;5.04;79.81;95019.91;5078379;28;20206;-76
2022/01/28 12:39:11;;;;;;;25.83;13.50;;;;;;;5.17;78.90;95037.34;5077971;28;20213;-72